Time;durP1;ratioP1;P1;durP2;ratioP2;P2;SDS_P1;SDS_P2;PMS_P1;PMS_P2;Temp;Humidity;BMP_temperature;BMP_pressure;BME280_temperature;BME280_humidity;BME280_pressure;Samples;Min_cycle;Max_cycle;Signal;HPM_P1;HPM_P2
2022/11/12 00:01:36;;;;;;;8.50;3.78;;;12.20;99.90;;;;;;4969142;28;20054;-70
2022/11/12 00:04:21;;;;;;;8.52;3.08;;;12.20;99.90;;;;;;4961015;28;20041;-68
2022/11/12 00:07:07;;;;;;;7.32;2.55;;;12.20;99.90;;;;;;4966077;28;20050;-66
2022/11/12 00:09:53;;;;;;;8.82;2.63;;;12.20;99.90;;;;;;4966941;28;20389;-65
2022/11/12 00:12:39;;;;;;;7.20;2.00;;;12.20;99.90;;;;;;4965622;28;20053;-68
2022/11/12 00:15:25;;;;;;;8.93;2.97;;;12.20;99.90;;;;;;4965563;28;20045;-71
2022/11/12 00:18:10;;;;;;;10.02;3.28;;;12.20;99.90;;;;;;4964761;28;20078;-72
2022/11/12 00:20:56;;;;;;;10.13;3.30;;;12.20;99.90;;;;;;4969198;28;20696;-66
2022/11/12 00:23:41;;;;;;;9.45;2.55;;;12.10;99.90;;;;;;4967255;28;20356;-74
2022/11/12 00:26:27;;;;;;;11.43;2.95;;;12.20;99.90;;;;;;4965922;28;20053;-66
2022/11/12 00:29:12;;;;;;;9.68;2.80;;;12.20;99.90;;;;;;4968486;28;20109;-66
2022/11/12 00:31:58;;;;;;;6.85;2.03;;;12.20;99.90;;;;;;4963811;28;20054;-69
2022/11/12 00:34:43;;;;;;;7.72;2.40;;;12.20;99.90;;;;;;4962722;28;20045;-66
2022/11/12 00:37:29;;;;;;;14.02;3.88;;;12.20;99.90;;;;;;4964891;28;20061;-64
2022/11/12 00:40:15;;;;;;;11.23;1.80;;;12.20;99.90;;;;;;4964469;28;20133;-68
2022/11/12 00:43:00;;;;;;;12.70;3.38;;;12.20;99.90;;;;;;4968894;28;20804;-65
2022/11/12 00:45:45;;;;;;;8.40;2.80;;;12.20;99.90;;;;;;4958761;28;20046;-72
2022/11/12 00:48:31;;;;;;;7.25;2.38;;;12.10;99.90;;;;;;4964940;28;20120;-66
2022/11/12 00:51:17;;;;;;;7.88;2.45;;;12.20;99.90;;;;;;4963923;28;20070;-66
2022/11/12 00:54:02;;;;;;;11.95;2.92;;;12.10;99.90;;;;;;4966971;28;20499;-77
2022/11/12 00:56:48;;;;;;;7.70;2.25;;;12.10;99.90;;;;;;4952944;28;20058;-65
2022/11/12 00:59:33;;;;;;;10.27;3.35;;;12.10;99.90;;;;;;4960018;28;20160;-65
2022/11/12 01:02:20;;;;;;;9.60;3.15;;;12.10;99.90;;;;;;4966154;28;20583;-67
2022/11/12 01:05:06;;;;;;;6.45;1.77;;;12.10;99.90;;;;;;4965767;28;20045;-73
2022/11/12 01:07:52;;;;;;;8.30;3.35;;;12.10;99.90;;;;;;4968652;28;20408;-74
2022/11/12 01:10:40;;;;;;;10.35;3.08;;;12.10;99.90;;;;;;4967308;28;20062;-65
2022/11/12 01:13:26;;;;;;;4.68;2.67;;;12.00;99.90;;;;;;4967881;28;20054;-66
2022/11/12 01:16:14;;;;;;;9.90;2.75;;;12.10;99.90;;;;;;4965641;28;20053;-69
2022/11/12 01:19:01;;;;;;;6.75;2.28;;;12.10;99.90;;;;;;4967029;28;20049;-69
2022/11/12 01:21:47;;;;;;;9.35;3.47;;;12.10;99.90;;;;;;4971354;28;20046;-66
2022/11/12 01:24:33;;;;;;;5.22;2.42;;;12.10;99.90;;;;;;4969962;28;20046;-66
2022/11/12 01:27:18;;;;;;;9.20;3.17;;;12.10;99.90;;;;;;4968885;28;20109;-66
2022/11/12 01:30:04;;;;;;;11.32;2.85;;;12.10;99.90;;;;;;4971787;28;20178;-66
2022/11/12 01:32:49;;;;;;;5.78;2.60;;;12.10;99.90;;;;;;4970163;28;20448;-66
2022/11/12 01:35:35;;;;;;;10.63;2.65;;;12.10;99.90;;;;;;4967631;28;20515;-66
2022/11/12 01:38:20;;;;;;;6.53;2.67;;;12.10;99.90;;;;;;4969361;28;20054;-74
2022/11/12 01:41:07;;;;;;;7.50;1.88;;;12.20;99.90;;;;;;4968528;28;20106;-66
2022/11/12 01:44:13;;;;;;;11.00;2.65;;;12.20;99.90;;;;;;4968191;28;20062;-70
2022/11/12 01:47:01;;;;;;;6.20;2.45;;;12.20;99.90;;;;;;4948490;28;20122;-66
2022/11/12 01:50:00;;;;;;;6.13;1.98;;;12.20;99.90;;;;;;4943761;28;20106;-67
2022/11/12 01:52:50;;;;;;;10.80;2.58;;;12.20;99.90;;;;;;4950286;28;20054;-66
2022/11/12 01:55:36;;;;;;;9.80;2.50;;;12.20;99.90;;;;;;4946230;28;20062;-66
2022/11/12 01:58:25;;;;;;;5.68;1.77;;;12.20;99.90;;;;;;4948761;28;20090;-71
2022/11/12 02:01:11;;;;;;;11.80;2.45;;;12.20;99.90;;;;;;4950924;28;20062;-66
2022/11/12 02:03:57;;;;;;;12.80;3.67;;;12.30;99.90;;;;;;4943264;28;20141;-66
2022/11/12 02:06:45;;;;;;;10.50;2.38;;;12.30;99.90;;;;;;4945792;28;20175;-72
2022/11/12 02:09:31;;;;;;;7.93;2.22;;;12.30;99.90;;;;;;4949341;28;20047;-67
2022/11/12 02:15:22;;;;;;;9.65;2.63;;;12.30;99.90;;;;;;4946557;28;20058;-72
2022/11/12 02:18:08;;;;;;;10.73;2.22;;;12.30;99.90;;;;;;4944642;28;20054;-71
2022/11/12 02:21:02;;;;;;;9.57;2.00;;;12.30;99.90;;;;;;4936940;28;20054;-67
2022/11/12 02:24:00;;;;;;;12.50;2.65;;;12.30;99.90;;;;;;4945072;28;20178;-71
2022/11/12 02:26:50;;;;;;;9.80;2.20;;;12.30;99.90;;;;;;4948818;28;20472;-71
2022/11/12 02:29:44;;;;;;;10.55;2.25;;;12.40;99.90;;;;;;4946695;28;20062;-65
2022/11/12 02:32:30;;;;;;;5.90;2.17;;;12.40;99.90;;;;;;4945915;28;20054;-68
2022/11/12 02:35:16;;;;;;;6.13;1.83;;;12.50;99.90;;;;;;4939001;28;20067;-71
2022/11/12 02:38:02;;;;;;;10.73;2.38;;;12.50;99.90;;;;;;4949665;28;20138;-65
2022/11/12 02:40:48;;;;;;;5.65;1.85;;;12.50;99.90;;;;;;4960664;28;20058;-65
2022/11/12 02:43:33;;;;;;;9.93;2.42;;;12.50;99.90;;;;;;4951752;28;20058;-71
2022/11/12 02:46:18;;;;;;;8.25;1.95;;;12.40;99.90;;;;;;4946711;28;20051;-67
2022/11/12 02:49:04;;;;;;;5.85;1.80;;;12.40;99.90;;;;;;4966400;28;20049;-66
2022/11/12 02:51:50;;;;;;;7.50;2.13;;;12.30;99.90;;;;;;4962083;28;20058;-66
2022/11/12 02:54:35;;;;;;;5.53;2.33;;;12.30;99.90;;;;;;4964239;28;20049;-65
2022/11/12 02:57:21;;;;;;;9.70;2.53;;;12.30;99.90;;;;;;4967799;28;20126;-65
2022/11/12 03:00:09;;;;;;;7.68;2.20;;;12.30;99.90;;;;;;4967790;28;20054;-67
2022/11/12 03:02:57;;;;;;;8.40;2.50;;;12.20;99.90;;;;;;4953775;28;20776;-69
2022/11/12 03:05:45;;;;;;;6.75;2.45;;;12.20;99.90;;;;;;4947984;28;20051;-66
2022/11/12 03:08:30;;;;;;;4.35;1.80;;;12.30;99.90;;;;;;4969400;28;20089;-68
2022/11/12 03:11:16;;;;;;;9.70;2.97;;;12.20;99.90;;;;;;4967564;28;20049;-67
2022/11/12 03:14:03;;;;;;;11.27;4.00;;;12.20;99.90;;;;;;4952974;28;20520;-78
2022/11/12 03:16:51;;;;;;;7.63;3.05;;;12.20;99.90;;;;;;4987944;28;20054;-68
2022/11/12 03:19:36;;;;;;;12.23;3.50;;;12.20;99.90;;;;;;4965884;28;20062;-68
2022/11/12 03:22:22;;;;;;;10.93;3.05;;;12.20;99.90;;;;;;4966399;28;20057;-68
2022/11/12 03:25:08;;;;;;;6.50;2.00;;;12.20;99.90;;;;;;4968806;28;20050;-70
2022/11/12 03:28:02;;;;;;;11.80;3.63;;;12.20;99.90;;;;;;4968540;28;20555;-67
2022/11/12 03:30:47;;;;;;;16.08;4.40;;;12.20;99.90;;;;;;4958006;28;20393;-66
2022/11/12 03:33:33;;;;;;;13.30;3.88;;;12.20;99.90;;;;;;4963166;28;20054;-75
2022/11/12 03:36:18;;;;;;;5.32;2.75;;;12.30;99.90;;;;;;4963563;28;20133;-73
2022/11/12 03:39:04;;;;;;;8.27;2.63;;;12.20;99.90;;;;;;4969007;28;20064;-69
2022/11/12 03:41:49;;;;;;;7.22;3.05;;;12.30;99.90;;;;;;4966516;28;20050;-72
2022/11/12 03:44:34;;;;;;;8.05;2.80;;;12.30;99.90;;;;;;4961779;28;20384;-69
2022/11/12 03:47:20;;;;;;;9.43;3.03;;;12.30;99.90;;;;;;4967604;28;20061;-66
2022/11/12 03:50:06;;;;;;;11.82;3.42;;;12.30;99.90;;;;;;4966343;28;20361;-66
2022/11/12 03:52:54;;;;;;;9.70;2.95;;;12.30;99.90;;;;;;4962440;28;20065;-67
2022/11/12 03:55:39;;;;;;;6.72;2.78;;;12.20;99.90;;;;;;4967546;28;20105;-71
2022/11/12 03:58:25;;;;;;;9.48;2.65;;;12.20;99.90;;;;;;4959811;28;20129;-69
2022/11/12 04:01:11;;;;;;;14.90;4.15;;;12.20;99.90;;;;;;4963646;28;20113;-67
2022/11/12 04:03:57;;;;;;;13.23;3.83;;;12.20;99.90;;;;;;4979546;28;20129;-64
2022/11/12 04:09:46;;;;;;;8.90;2.65;;;12.20;99.90;;;;;;4968211;28;20120;-77
2022/11/12 04:15:35;;;;;;;12.18;3.15;;;12.30;99.90;;;;;;4968365;28;20045;-64
2022/11/12 04:21:50;;;;;;;11.73;3.05;;;12.20;99.90;;;;;;4958786;28;20101;-66
2022/11/12 04:27:44;;;;;;;7.88;2.88;;;12.20;99.90;;;;;;4969303;28;20363;-64
2022/11/12 04:30:30;;;;;;;13.23;3.58;;;12.20;99.90;;;;;;4963318;28;20551;-64
2022/11/12 04:33:15;;;;;;;10.48;3.97;;;12.20;99.90;;;;;;4966666;28;20054;-66
2022/11/12 04:36:01;;;;;;;9.77;2.38;;;12.20;99.90;;;;;;4965563;28;20456;-68
2022/11/12 04:38:47;;;;;;;15.43;3.42;;;12.20;99.90;;;;;;4964001;28;20472;-66
2022/11/12 04:47:42;;;;;;;18.27;3.35;;;12.20;99.90;;;;;;4964295;28;20372;-70
2022/11/12 04:50:28;;;;;;;5.43;2.58;;;12.30;99.90;;;;;;4963777;28;20133;-68
2022/11/12 04:53:14;;;;;;;12.02;3.00;;;12.40;99.90;;;;;;4959047;28;20589;-67
2022/11/12 04:55:59;;;;;;;4.45;2.50;;;12.50;99.90;;;;;;4967165;28;20559;-69
2022/11/12 04:58:45;;;;;;;9.82;3.13;;;12.60;99.90;;;;;;4946804;28;20905;-67
2022/11/12 05:01:30;;;;;;;9.73;2.40;;;12.70;99.90;;;;;;4965257;28;20065;-66
2022/11/12 05:04:15;;;;;;;10.32;2.38;;;12.80;99.90;;;;;;4956349;28;20070;-69
2022/11/12 05:07:01;;;;;;;12.77;4.00;;;12.80;99.90;;;;;;4967246;28;20050;-70
2022/11/12 05:09:47;;;;;;;12.88;3.97;;;12.80;99.90;;;;;;4962343;28;20046;-66
2022/11/12 05:12:32;;;;;;;11.07;2.47;;;12.80;99.90;;;;;;4989026;28;20050;-68
2022/11/12 05:15:19;;;;;;;6.82;2.03;;;12.90;99.90;;;;;;4958022;28;20190;-67
2022/11/12 05:18:04;;;;;;;5.57;2.97;;;12.90;99.90;;;;;;4962069;28;20049;-68
2022/11/12 05:20:52;;;;;;;8.43;3.03;;;12.90;99.90;;;;;;4958931;28;20054;-66
2022/11/12 05:23:37;;;;;;;7.60;2.50;;;12.80;99.90;;;;;;4964253;28;20049;-66
2022/11/12 05:26:23;;;;;;;7.63;2.80;;;12.80;99.90;;;;;;4964524;28;20065;-68
2022/11/12 05:29:08;;;;;;;10.40;2.33;;;12.70;99.90;;;;;;4964127;28;20054;-66
2022/11/12 05:31:54;;;;;;;8.80;2.83;;;12.70;99.90;;;;;;4959506;28;20491;-67
2022/11/12 05:34:40;;;;;;;9.40;2.75;;;12.60;99.90;;;;;;4959356;28;20050;-67
2022/11/12 05:37:25;;;;;;;16.40;4.90;;;12.60;99.90;;;;;;4962145;28;20485;-68
2022/11/12 05:40:11;;;;;;;7.30;3.20;;;12.60;99.90;;;;;;4961228;28;20049;-72
2022/11/12 05:42:57;;;;;;;10.65;3.25;;;12.50;99.90;;;;;;4963520;28;20046;-66
2022/11/12 05:45:43;;;;;;;8.85;3.25;;;12.50;99.90;;;;;;4965024;28;20095;-67
2022/11/12 05:48:28;;;;;;;15.95;4.32;;;12.40;99.90;;;;;;4957965;28;20125;-69
2022/11/12 05:51:14;;;;;;;11.55;3.90;;;12.40;99.90;;;;;;4962742;28;20174;-68
2022/11/12 05:54:00;;;;;;;12.13;3.22;;;12.30;99.90;;;;;;4966096;28;20054;-73
2022/11/12 05:56:46;;;;;;;18.35;4.57;;;12.30;99.90;;;;;;4964368;28;20053;-67
2022/11/12 05:59:32;;;;;;;11.48;5.60;;;12.20;99.90;;;;;;4966062;28;20491;-67
2022/11/12 06:02:17;;;;;;;9.75;2.97;;;12.30;99.90;;;;;;4965575;28;20045;-66
2022/11/12 06:05:03;;;;;;;13.00;3.22;;;12.20;99.90;;;;;;4966857;28;20058;-67
2022/11/12 06:07:49;;;;;;;13.60;3.97;;;12.20;99.90;;;;;;4967428;28;20182;-67
2022/11/12 06:10:34;;;;;;;8.25;2.50;;;12.20;99.90;;;;;;4965954;28;20150;-70
2022/11/12 06:13:22;;;;;;;14.18;3.88;;;12.20;99.90;;;;;;4965820;28;20065;-66
2022/11/12 06:16:08;;;;;;;13.07;4.07;;;12.10;99.90;;;;;;4962342;28;20058;-66
2022/11/12 06:18:53;;;;;;;13.98;4.05;;;12.10;99.90;;;;;;4967962;28;20395;-66
2022/11/12 06:21:39;;;;;;;13.20;4.35;;;12.10;99.90;;;;;;4964756;28;20062;-66
2022/11/12 06:24:25;;;;;;;13.48;4.55;;;12.10;99.90;;;;;;4965946;28;20061;-67
2022/11/12 06:27:18;;;;;;;12.73;2.90;;;12.10;99.90;;;;;;4966076;28;20046;-71
2022/11/12 06:30:05;;;;;;;13.93;3.67;;;12.10;99.90;;;;;;4968228;28;20123;-67
2022/11/12 06:32:51;;;;;;;13.85;3.75;;;12.10;99.90;;;;;;4964006;28;20058;-68
2022/11/12 06:35:36;;;;;;;14.90;2.88;;;12.10;99.90;;;;;;4967174;28;20125;-67
2022/11/12 06:38:29;;;;;;;9.55;2.80;;;12.10;99.90;;;;;;4964431;28;20074;-67
2022/11/12 06:41:15;;;;;;;9.27;3.03;;;12.10;99.90;;;;;;4965529;28;20094;-68
2022/11/12 06:44:02;;;;;;;9.70;3.13;;;12.10;99.90;;;;;;4968594;28;20057;-72
2022/11/12 06:46:47;;;;;;;8.52;2.60;;;12.10;99.90;;;;;;4946098;28;20358;-67
2022/11/12 06:49:33;;;;;;;9.00;3.03;;;12.10;99.90;;;;;;4958358;28;20060;-72
2022/11/12 06:52:18;;;;;;;11.23;3.13;;;12.20;99.90;;;;;;4966448;28;20109;-67
2022/11/12 06:55:04;;;;;;;11.95;2.15;;;12.20;99.90;;;;;;4967781;28;20559;-67
2022/11/12 06:57:52;;;;;;;7.57;2.47;;;12.20;99.90;;;;;;4963815;28;20057;-72
2022/11/12 07:00:37;;;;;;;8.38;2.58;;;12.20;99.90;;;;;;4942647;28;20055;-67
2022/11/12 07:03:23;;;;;;;10.40;2.38;;;12.20;99.90;;;;;;4955757;28;20045;-67
2022/11/12 07:06:11;;;;;;;7.35;2.75;;;12.20;99.90;;;;;;4964773;28;20066;-67
2022/11/12 07:08:57;;;;;;;6.45;2.10;;;12.20;99.90;;;;;;4967783;28;20045;-66
2022/11/12 07:11:42;;;;;;;10.00;2.35;;;12.20;99.90;;;;;;4964698;28;20083;-69
2022/11/12 07:14:28;;;;;;;5.07;2.60;;;12.20;99.90;;;;;;4960998;28;20065;-70
2022/11/12 07:17:13;;;;;;;15.30;3.20;;;12.30;99.90;;;;;;4963949;28;20187;-76
2022/11/12 07:19:59;;;;;;;5.18;2.35;;;12.30;99.90;;;;;;4964195;28;20405;-73
2022/11/12 07:22:48;;;;;;;7.70;2.90;;;12.30;99.90;;;;;;4967084;28;20163;-66
2022/11/12 07:25:34;;;;;;;9.05;2.60;;;12.20;99.90;;;;;;4968471;28;20180;-66
2022/11/12 07:28:20;;;;;;;8.88;3.65;;;12.20;99.90;;;;;;4966066;28;20185;-70
2022/11/12 07:31:08;;;;;;;11.85;2.70;;;12.20;99.90;;;;;;4966415;28;20049;-70
2022/11/12 07:33:54;;;;;;;4.07;1.63;;;12.20;99.90;;;;;;4963294;28;20178;-66
2022/11/12 07:36:39;;;;;;;8.90;2.00;;;12.20;99.90;;;;;;4966699;28;20054;-67
2022/11/12 07:39:25;;;;;;;6.43;2.13;;;12.20;99.90;;;;;;4966504;28;20109;-66
2022/11/12 07:42:10;;;;;;;7.40;2.00;;;12.20;99.90;;;;;;4962101;28;20217;-73
2022/11/12 07:44:56;;;;;;;8.15;1.90;;;12.20;99.90;;;;;;4966427;28;20054;-67
2022/11/12 07:47:41;;;;;;;5.25;2.33;;;12.20;99.90;;;;;;4958396;28;20077;-68
2022/11/12 07:50:27;;;;;;;14.43;2.55;;;12.20;99.90;;;;;;4963897;28;20057;-72
2022/11/12 07:53:12;;;;;;;8.73;2.08;;;12.20;99.90;;;;;;4964811;28;20065;-70
2022/11/12 07:56:00;;;;;;;5.25;1.77;;;12.10;99.90;;;;;;4964407;28;20050;-68
2022/11/12 07:58:47;;;;;;;6.85;2.28;;;12.10;99.90;;;;;;4945150;28;20062;-68
2022/11/12 08:01:38;;;;;;;10.35;1.90;;;12.10;99.90;;;;;;4943276;28;20054;-66
2022/11/12 08:04:24;;;;;;;5.32;1.88;;;12.10;99.90;;;;;;4945323;28;20069;-69
2022/11/12 08:07:09;;;;;;;7.75;2.65;;;12.10;99.90;;;;;;4943707;28;20118;-70
2022/11/12 08:09:55;;;;;;;9.70;1.90;;;12.10;99.90;;;;;;4948074;28;20925;-67
2022/11/12 08:12:40;;;;;;;4.80;2.10;;;12.10;99.90;;;;;;4942426;28;20944;-67
2022/11/12 08:15:25;;;;;;;4.57;1.63;;;12.10;99.90;;;;;;4945245;28;20484;-66
2022/11/12 08:18:11;;;;;;;8.35;2.53;;;12.10;99.90;;;;;;4941828;28;20059;-70
2022/11/12 08:21:05;;;;;;;8.38;1.92;;;12.10;99.90;;;;;;4944326;28;20050;-75
2022/11/12 08:23:51;;;;;;;4.13;1.55;;;12.20;99.90;;;;;;4947707;28;20058;-66
2022/11/12 08:26:36;;;;;;;4.18;1.65;;;12.20;99.90;;;;;;4944171;28;20058;-70
2022/11/12 08:29:22;;;;;;;7.82;2.15;;;12.20;99.90;;;;;;4945319;28;20054;-78
2022/11/12 08:32:08;;;;;;;3.55;1.98;;;12.20;99.90;;;;;;4946028;28;20058;-75
2022/11/12 08:34:53;;;;;;;6.15;1.77;;;12.20;99.90;;;;;;4945637;28;20844;-67
2022/11/12 08:37:38;;;;;;;7.40;2.00;;;12.30;99.90;;;;;;4946262;28;20069;-67
2022/11/12 08:40:25;;;;;;;5.63;1.48;;;12.30;99.90;;;;;;4945330;28;20202;-66
2022/11/12 08:43:10;;;;;;;4.75;2.92;;;12.30;99.90;;;;;;4944730;28;20190;-68
2022/11/12 08:46:01;;;;;;;4.18;2.00;;;12.30;99.90;;;;;;4944364;28;20074;-66
2022/11/12 08:48:46;;;;;;;5.30;1.27;;;12.30;99.90;;;;;;4943456;28;20169;-67
2022/11/12 08:51:32;;;;;;;4.28;2.38;;;12.30;99.90;;;;;;4942472;28;20065;-69
2022/11/12 08:54:18;;;;;;;6.57;1.95;;;12.40;99.90;;;;;;4941865;28;20187;-67
2022/11/12 08:57:03;;;;;;;5.70;2.88;;;12.40;99.90;;;;;;4943577;28;20081;-68
2022/11/12 08:59:48;;;;;;;4.25;1.65;;;12.40;99.90;;;;;;4947339;28;20133;-68
2022/11/12 09:02:34;;;;;;;4.55;2.08;;;12.40;99.90;;;;;;4940050;28;20073;-70
2022/11/12 09:05:20;;;;;;;4.95;1.45;;;12.40;99.90;;;;;;4946871;28;20054;-69
2022/11/12 09:08:08;;;;;;;9.00;1.65;;;12.40;99.90;;;;;;4940593;28;20539;-67
2022/11/12 09:10:56;;;;;;;9.85;1.83;;;12.50;99.90;;;;;;4945651;28;20174;-70
2022/11/12 09:13:41;;;;;;;4.28;1.30;;;12.50;99.90;;;;;;4946427;28;20058;-69
2022/11/12 09:16:27;;;;;;;4.85;1.27;;;12.50;99.90;;;;;;4934966;28;20199;-67
2022/11/12 09:19:12;;;;;;;5.72;1.40;;;12.50;99.90;;;;;;4948447;28;20062;-70
2022/11/12 09:21:58;;;;;;;6.18;1.48;;;12.50;99.90;;;;;;4945143;28;20099;-70
2022/11/12 09:24:44;;;;;;;11.15;2.63;;;12.60;99.90;;;;;;4948895;28;20113;-67
2022/11/12 09:27:29;;;;;;;4.40;1.40;;;12.60;99.90;;;;;;4946363;28;20054;-67
2022/11/12 09:30:15;;;;;;;6.97;2.20;;;12.70;99.90;;;;;;4941431;28;20099;-67
2022/11/12 09:33:00;;;;;;;8.25;1.55;;;12.70;99.90;;;;;;4946830;28;20100;-65
2022/11/12 09:35:46;;;;;;;7.25;1.40;;;12.70;99.90;;;;;;4945536;28;20046;-65
2022/11/12 09:38:32;;;;;;;7.20;2.10;;;12.70;99.90;;;;;;4958733;28;20054;-65
2022/11/12 09:41:24;;;;;;;6.30;1.55;;;12.80;99.90;;;;;;4962482;28;20061;-66
2022/11/12 09:44:14;;;;;;;4.40;1.48;;;12.80;99.90;;;;;;4958938;28;20050;-66
2022/11/12 09:47:11;;;;;;;6.03;1.55;;;12.80;99.90;;;;;;4977975;28;20098;-65
2022/11/12 09:50:13;;;;;;;3.90;1.90;;;12.80;99.90;;;;;;4963189;28;20397;-65
2022/11/12 09:53:25;;;;;;;7.05;1.50;;;12.70;99.90;;;;;;4961459;28;20183;-64
2022/11/12 09:56:12;;;;;;;4.72;2.50;;;12.70;99.90;;;;;;4952605;28;20062;-68
2022/11/12 09:58:58;;;;;;;5.82;2.05;;;12.70;99.90;;;;;;4963152;28;20042;-65
2022/11/12 10:02:04;;;;;;;10.68;2.88;;;12.70;99.90;;;;;;4961028;28;20070;-65
2022/11/12 10:05:09;;;;;;;5.30;1.50;;;12.70;99.90;;;;;;4964020;28;20501;-62
2022/11/12 10:07:54;;;;;;;4.20;1.95;;;12.70;99.90;;;;;;4960793;28;20045;-65
2022/11/12 10:10:42;;;;;;;5.70;2.75;;;12.70;99.90;;;;;;4964484;28;20057;-63
2022/11/12 10:13:31;;;;;;;3.22;2.83;;;12.70;99.90;;;;;;4964420;28;20101;-69
2022/11/12 10:16:42;;;;;;;7.32;2.05;;;12.70;99.90;;;;;;4960286;28;20523;-65
2022/11/12 10:19:46;;;;;;;5.68;2.05;;;12.70;99.90;;;;;;4957710;28;20054;-65
2022/11/12 10:22:39;;;;;;;4.15;1.83;;;12.70;99.90;;;;;;4963557;28;20066;-64
2022/11/12 10:25:26;;;;;;;9.75;2.88;;;12.70;99.90;;;;;;4964524;28;20057;-64
2022/11/12 10:28:34;;;;;;;8.68;2.38;;;12.70;99.90;;;;;;4964932;28;20141;-65
2022/11/12 10:31:23;;;;;;;2.78;1.50;;;12.80;99.90;;;;;;4965385;28;20052;-64
2022/11/12 10:34:08;;;;;;;7.05;1.92;;;12.80;99.90;;;;;;4964280;28;20376;-68
2022/11/12 10:37:00;;;;;;;8.25;3.40;;;12.80;99.90;;;;;;4967434;28;20606;-67
2022/11/12 10:39:46;;;;;;;6.25;2.17;;;12.80;99.90;;;;;;4963905;28;20054;-69
2022/11/12 10:42:31;;;;;;;5.82;2.45;;;12.90;99.90;;;;;;4962869;28;20069;-71
2022/11/12 10:45:22;;;;;;;9.63;3.47;;;12.90;99.90;;;;;;4958551;28;20055;-65
2022/11/12 10:48:26;;;;;;;4.30;2.20;;;12.90;99.90;;;;;;4961308;28;20934;-64
2022/11/12 10:51:38;;;;;;;9.50;2.10;;;12.90;99.90;;;;;;4960485;28;20149;-67
2022/11/12 10:54:28;;;;;;;9.93;2.67;;;12.90;99.90;;;;;;4958060;28;20491;-66
2022/11/12 10:57:25;;;;;;;5.97;2.53;;;12.90;99.90;;;;;;4962082;28;20530;-65
2022/11/12 11:00:13;;;;;;;15.88;2.42;;;12.90;99.90;;;;;;4960981;28;20054;-64
2022/11/12 11:03:02;;;;;;;9.82;1.92;;;12.90;99.90;;;;;;4968785;28;20062;-68
2022/11/12 11:06:02;;;;;;;8.80;2.78;;;12.90;99.90;;;;;;4960188;28;20588;-65
2022/11/12 11:08:50;;;;;;;7.60;2.83;;;12.90;99.90;;;;;;4960382;28;20053;-66
2022/11/12 11:11:36;;;;;;;6.03;2.38;;;12.80;99.90;;;;;;4979369;28;20133;-67
2022/11/12 11:14:22;;;;;;;5.75;2.35;;;12.80;99.90;;;;;;4960799;28;20528;-69
2022/11/12 11:17:16;;;;;;;9.98;2.20;;;12.80;99.90;;;;;;4966401;28;20487;-66
2022/11/12 11:20:09;;;;;;;5.40;1.63;;;12.80;99.90;;;;;;4964903;28;20053;-70
2022/11/12 11:23:20;;;;;;;10.32;2.22;;;12.70;99.90;;;;;;4958225;28;20069;-67
2022/11/12 11:26:16;;;;;;;11.00;2.20;;;12.70;99.90;;;;;;4959035;28;20377;-67
2022/11/12 11:29:37;;;;;;;5.60;2.83;;;12.70;99.90;;;;;;4962706;28;20055;-68
2022/11/12 11:32:51;;;;;;;3.67;2.05;;;12.70;99.90;;;;;;4962375;28;20053;-66
2022/11/12 11:36:02;;;;;;;7.00;2.80;;;12.80;99.90;;;;;;4965545;28;20496;-64
2022/11/12 11:38:53;;;;;;;10.32;2.67;;;12.80;99.90;;;;;;4965520;28;20077;-64
2022/11/12 11:42:17;;;;;;;3.97;1.77;;;12.80;99.90;;;;;;4961851;28;20045;-64
2022/11/12 11:45:25;;;;;;;15.20;3.53;;;12.80;99.90;;;;;;4946240;28;20054;-65
2022/11/12 11:48:20;;;;;;;12.70;3.15;;;12.80;99.90;;;;;;4936409;28;20075;-67
2022/11/12 11:51:36;;;;;;;5.78;1.80;;;12.90;99.90;;;;;;4940917;28;20054;-64
2022/11/12 11:55:01;;;;;;;9.25;2.55;;;12.90;99.90;;;;;;4943861;28;20134;-67
2022/11/12 11:58:04;;;;;;;5.13;2.25;;;12.90;99.90;;;;;;4941830;28;20046;-63
2022/11/12 12:01:06;;;;;;;5.30;2.05;;;12.90;99.90;;;;;;4944357;28;20462;-66
2022/11/12 12:04:19;;;;;;;10.70;3.03;;;12.90;99.90;;;;;;4941644;28;20053;-65
2022/11/12 12:07:34;;;;;;;7.18;2.25;;;12.90;99.90;;;;;;4946028;28;20066;-65
2022/11/12 12:10:55;;;;;;;8.55;2.25;;;12.90;99.90;;;;;;4939329;28;20485;-66
2022/11/12 12:14:23;;;;;;;9.95;2.70;;;12.90;99.90;;;;;;4939599;28;20170;-67
2022/11/12 12:17:30;;;;;;;11.80;2.80;;;12.90;99.90;;;;;;4962726;28;20065;-65
2022/11/12 12:20:33;;;;;;;13.70;3.00;;;12.90;99.90;;;;;;4960630;28;20161;-70
2022/11/12 12:23:25;;;;;;;11.98;3.60;;;12.90;99.90;;;;;;4964839;28;20050;-63
2022/11/12 12:26:45;;;;;;;11.05;2.42;;;12.90;99.90;;;;;;4962088;28;20050;-69
2022/11/12 12:29:42;;;;;;;14.25;3.10;;;12.90;99.90;;;;;;4965376;28;20369;-66
2022/11/12 12:32:42;;;;;;;14.30;2.92;;;12.90;99.90;;;;;;4964155;28;20077;-65
2022/11/12 12:35:32;;;;;;;12.67;2.20;;;12.90;99.90;;;;;;4966055;28;20101;-69
2022/11/12 12:38:36;;;;;;;16.23;3.05;;;12.90;99.90;;;;;;4962167;28;20092;-68
2022/11/12 12:41:31;;;;;;;11.20;3.33;;;12.90;99.90;;;;;;4962731;28;20054;-69
2022/11/12 12:44:17;;;;;;;23.25;14.15;;;12.90;99.90;;;;;;4956659;28;20061;-68
2022/11/12 12:47:03;;;;;;;13.02;8.68;;;12.80;99.90;;;;;;4956548;28;20059;-66
2022/11/12 12:49:50;;;;;;;14.05;4.55;;;12.80;99.90;;;;;;4961604;28;20060;-67
2022/11/12 12:53:18;;;;;;;21.08;7.72;;;12.80;99.90;;;;;;4966905;28;20093;-65
2022/11/12 12:56:31;;;;;;;16.50;9.82;;;12.70;99.90;;;;;;4966851;28;20544;-66
2022/11/12 12:59:22;;;;;;;18.42;4.88;;;12.70;99.90;;;;;;4962574;28;20133;-70
2022/11/12 13:02:18;;;;;;;;;;;12.70;99.90;;;;;;4968192;28;20192;-65
2022/11/12 13:05:04;;;;;;;13.15;6.15;;;12.60;99.90;;;;;;4968488;28;19929;-65
2022/11/12 13:07:50;;;;;;;13.30;4.55;;;12.50;99.90;;;;;;4965941;28;20128;-65
2022/11/12 13:10:40;;;;;;;12.20;3.40;;;12.50;99.90;;;;;;4965527;28;20740;-68
2022/11/12 13:13:31;;;;;;;15.55;3.53;;;12.40;99.90;;;;;;4968662;28;20434;-65
2022/11/12 13:16:48;;;;;;;8.57;3.20;;;12.40;99.90;;;;;;4959788;28;20517;-66
2022/11/12 13:19:45;;;;;;;12.45;4.40;;;12.30;99.90;;;;;;4966027;28;20046;-74
2022/11/12 13:22:50;;;;;;;15.38;4.32;;;12.20;99.90;;;;;;4959225;28;20049;-66
2022/11/12 13:25:36;;;;;;;16.90;3.72;;;12.20;99.90;;;;;;4963440;28;20467;-65
2022/11/12 13:28:22;;;;;;;10.85;3.97;;;12.20;99.90;;;;;;4961611;28;20090;-69
2022/11/12 13:31:28;;;;;;;8.07;4.57;;;12.10;99.90;;;;;;4965443;28;20096;-68
2022/11/12 13:34:32;;;;;;;17.98;3.55;;;12.10;99.90;;;;;;4963905;28;20053;-74
2022/11/12 13:37:21;;;;;;;10.40;3.10;;;12.10;99.90;;;;;;4965439;28;20053;-71
2022/11/12 13:40:12;;;;;;;10.73;2.92;;;12.10;99.90;;;;;;4989506;28;20054;-67
2022/11/12 13:43:09;;;;;;;11.60;3.38;;;12.00;99.90;;;;;;4965170;28;20791;-65
2022/11/12 13:46:11;;;;;;;14.90;4.65;;;12.00;99.90;;;;;;4964269;28;20182;-71
2022/11/12 13:48:56;;;;;;;9.77;3.63;;;12.00;99.90;;;;;;4966298;28;20049;-68
2022/11/12 13:51:45;;;;;;;6.63;2.85;;;12.00;99.90;;;;;;4968864;28;20125;-66
2022/11/12 13:54:35;;;;;;;11.38;3.15;;;11.90;99.90;;;;;;4963570;28;20062;-65
2022/11/12 13:57:23;;;;;;;6.45;3.08;;;11.90;99.90;;;;;;4965171;28;20074;-69
2022/11/12 14:00:21;;;;;;;11.90;4.97;;;11.80;99.90;;;;;;4966199;28;20511;-67
2022/11/12 14:03:07;;;;;;;16.10;4.38;;;11.80;99.90;;;;;;4965264;28;20583;-69
2022/11/12 14:05:53;;;;;;;23.15;4.03;;;11.80;99.90;;;;;;4964446;28;20050;-66
2022/11/12 14:08:56;;;;;;;12.10;3.65;;;11.80;99.90;;;;;;4963706;28;20085;-67
2022/11/12 14:12:12;;;;;;;12.50;5.03;;;11.80;99.90;;;;;;4969366;28;20181;-73
2022/11/12 14:15:07;;;;;;;13.95;3.50;;;11.80;99.90;;;;;;4967087;28;20616;-67
2022/11/12 14:18:14;;;;;;;32.78;4.60;;;11.80;99.90;;;;;;4963826;28;20111;-65
2022/11/12 14:21:12;;;;;;;12.77;4.05;;;11.80;99.90;;;;;;4963495;28;20054;-71
2022/11/12 14:24:00;;;;;;;6.43;2.17;;;11.90;99.90;;;;;;4968589;28;20555;-65
2022/11/12 14:26:45;;;;;;;8.35;3.03;;;11.90;99.90;;;;;;4964524;28;20149;-68
2022/11/12 14:29:31;;;;;;;8.30;2.90;;;11.90;99.90;;;;;;4967248;28;20061;-66
2022/11/12 14:32:21;;;;;;;;;;;11.90;99.90;;;;;;4965323;28;20273;-65
2022/11/12 14:35:26;;;;;;;13.77;2.78;;;11.80;99.90;;;;;;4962776;28;20383;-65
2022/11/12 14:38:56;;;;;;;10.20;3.45;;;11.80;99.90;;;;;;4965037;28;20500;-67
2022/11/12 14:41:44;;;;;;;10.48;3.35;;;11.90;99.90;;;;;;4900291;29;20471;-68
2022/11/12 14:44:35;;;;;;;8.15;2.97;;;11.90;99.90;;;;;;4917070;29;20070;-66
2022/11/12 14:47:23;;;;;;;4.93;2.03;;;11.90;99.90;;;;;;4952701;28;20129;-66
2022/11/12 14:50:23;;;;;;;16.38;3.78;;;11.90;99.90;;;;;;4943425;28;20046;-65
2022/11/12 14:53:15;;;;;;;13.82;2.47;;;11.90;99.90;;;;;;4964346;28;20089;-65
2022/11/12 14:56:12;;;;;;;9.15;2.47;;;11.90;99.90;;;;;;4961458;28;20054;-65
2022/11/12 14:58:58;;;;;;;9.88;3.63;;;11.90;99.90;;;;;;4966297;28;20194;-64
2022/11/12 15:02:09;;;;;;;10.13;2.70;;;11.90;99.90;;;;;;4965148;28;20174;-68
2022/11/12 15:05:17;;;;;;;15.10;3.50;;;11.90;99.90;;;;;;4940931;28;20086;-68